Lemmon, South Dakota
Current Conditions -  °F | °C
As of 12:53 AM on Friday 31 Oct 2014 (Local Time) from KHEI Reporting Station
Overcast Overcast  
Wind Chill: 19°   Ceiling: 800
Heat Index: 29°   Visibility: 10mi
Dew Point: 25°   Wind: 13mph
Humidity: 85%   Direction: 140°SE
Pressure: 30.5"   Gusts: NA
Location:  45.94°N, 102.16°W
Report Text: KHEI 310653Z AUTO 14011KT 10SM OVC008 M02/M04 A3050 RMK AO2 SLP357 T10171039 400331017
Loading
Personal Weather Stations






























Interactive Weather Map New forecast layout! Learn more

10-Day Weather Forecast

Advertisements
Track Severe Weather on mobile